Sunday, July 22, 2018, 2:52 AM EDT
Back to Local

KAKR, Akron Fulton International

Location: Akron, OH, United States Lat: 41.033
Local Time: 2:52 AM EDT ( 6:52 GMT) Lon: -81.467
Time Zone: US/Eastern Elev: 1069 ft

Show me the last for .
Show Decoded

2018-07-22 01:54 METAR KAKR 220554Z AUTO 08005KT 10SM CLR 20/16 A2977 RMK AO2 SLP074 T02000156
                 10261 20200 58009 =
2018-07-22 00:54 METAR KAKR 220454Z AUTO VRB06KT 10SM CLR 21/16 A2979 RMK AO2 SLP077 T02110156
                 402890200 =
2018-07-21 23:54 METAR KAKR 220354Z AUTO 09007KT 070V130 10SM CLR 22/16 A2979 RMK AO2 SLP080
                 T02220161 =
2018-07-21 21:54 METAR KAKR 220154Z AUTO 10006KT 10SM FEW030 24/17 A2980 RMK AO2 SLP083 T02390172
                 =
2018-07-21 20:54 METAR KAKR 220054Z AUTO 09008KT 060V140 10SM FEW100 25/17 A2979 RMK AO2 SLP080
                 T02500172 =
2018-07-21 19:54 METAR KAKR 212354Z AUTO 10003KT 10SM SCT039 26/17 A2978 RMK AO2 SLP077 T02610172
                 10289 20256 53002 =
2018-07-21 18:54 METAR KAKR 212254Z AUTO VRB06G16KT 10SM SCT080 BKN090 27/18 A2978 RMK AO2 SLP075
                 T02720178 =
2018-07-21 17:54 METAR KAKR 212154Z AUTO 12007KT 10SM FEW040 BKN065 OVC090 27/18 A2978 RMK AO2
                 SLP075 T02720178 =
2018-07-21 16:54 METAR KAKR 212054Z AUTO 13007KT 090V170 10SM FEW065 BKN090 27/17 A2978 RMK AO2
                 SLP074 T02720167 56010 =
2018-07-21 15:54 METAR KAKR 211954Z AUTO 18011G18KT 10SM FEW038 FEW085 28/16 A2979 RMK AO2 SLP077
                 T02830161 =
2018-07-21 14:54 METAR KAKR 211854Z AUTO 16013G18KT 10SM FEW036 27/16 A2979 RMK AO2 SLP079
                 T02670161 =
2018-07-21 13:54 METAR KAKR 211754Z AUTO 18011G17KT 10SM FEW032 FEW046 26/17 A2981 RMK AO2 SLP085
                 60001 T02610172 10261 20200 58008 =
2018-07-21 12:54 METAR KAKR 211654Z AUTO 19012G20KT 10SM SCT031 25/17 A2982 RMK AO2 SLP091
                 T02500167 =
2018-07-21 11:54 METAR KAKR 211554Z AUTO 18013G21KT 10SM FEW026 SCT031 SCT045 24/17 A2984 RMK AO2
                 PK WND 18026/1536 RAE03 SLP094 P0000 T02440167 =
2018-07-21 10:54 METAR KAKR 211454Z AUTO 18009G17KT 10SM -RA FEW022 SCT035 BKN060 23/17 A2984 RMK
                 AO2 RAB52 SLP094 P0000 60001 T02280172 50005 =
2018-07-21 09:54 METAR KAKR 211354Z AUTO 17007KT 10SM FEW016 BKN070 OVC110 21/17 A2984 RMK AO2
                 SLP095 T02110172 =
2018-07-21 08:54 METAR KAKR 211254Z AUTO 15008KT 10SM FEW018 BKN055 OVC075 21/17 A2983 RMK AO2
                 RAB34E52 SLP093 P0001 T02060167 =
2018-07-21 07:54 METAR KAKR 211154Z AUTO VRB06KT 10SM FEW017 BKN043 OVC080 21/16 A2982 RMK AO2
                 SLP090 T02060161 10222 20206 56001 =
2018-07-21 07:36 METAR KAKR 211136Z AUTO 16007KT 10SM FEW017 SCT025 OVC043 21/17 A2982 RMK AO2
                 T02060167 =
2018-07-21 06:54 METAR KAKR 211054Z AUTO 18006KT 10SM OVC017 21/17 A2982 RMK AO2 SLP090 T02060167
                 =
2018-07-21 05:54 METAR KAKR 210954Z AUTO 17007KT 10SM OVC020 21/16 A2982 RMK AO2 SLP089 T02110161
                 =
2018-07-21 04:54 METAR KAKR 210854Z AUTO 17006KT 10SM OVC023 21/16 A2983 RMK AO2 SLP091 T02110161
                 58006 =
2018-07-21 04:32 METAR KAKR 210832Z AUTO 16007KT 10SM BKN025 BKN120 21/17 A2983 RMK AO2 T02110167
                 =
2018-07-21 03:54 METAR KAKR 210754Z AUTO 18007KT 10SM FEW110 21/16 A2983 RMK AO2 SLP093 T02110161
                 =
2018-07-21 02:54 METAR KAKR 210654Z AUTO 17007KT 10SM OVC110 22/17 A2984 RMK AO2 SLP096 T02170167
                 =

Support USWX by starting your Amazon purchase here.